createdAt,value
2018-05-27T12:58:04.435Z,26.00
2018-05-27T12:58:35.771Z,26.00
2018-05-27T12:59:07.107Z,25.90
2018-05-27T12:59:38.443Z,25.80
2018-05-27T13:00:09.751Z,25.80
2018-05-27T13:00:41.787Z,25.70
2018-05-27T13:01:13.086Z,25.70
2018-05-27T13:01:44.428Z,25.70
2018-05-27T13:02:15.791Z,25.60
2018-05-27T13:02:47.134Z,25.60
2018-05-27T13:03:18.511Z,25.50
2018-05-27T13:28:52.575Z,21.80
2018-05-27T13:29:31.606Z,21.70
2018-05-27T13:30:03.741Z,21.70
2018-05-27T13:30:34.990Z,21.70
2018-05-27T13:31:07.015Z,21.70
2018-05-27T13:31:38.370Z,21.70
2018-05-27T13:32:09.712Z,21.70
2018-05-27T13:32:41.738Z,21.60
2018-05-27T13:33:13.029Z,21.50
2018-05-27T13:33:45.070Z,21.60
2018-05-27T13:34:16.378Z,21.50
2018-05-27T13:34:47.679Z,21.60
2018-05-27T13:35:18.971Z,21.60
2018-05-27T13:35:50.282Z,21.50
2018-05-27T13:36:21.580Z,21.60
2018-05-27T13:36:52.915Z,21.60
2018-05-27T13:37:24.955Z,21.60
2018-05-27T13:37:56.303Z,21.50
2018-05-27T13:38:27.642Z,21.50
2018-05-27T13:38:58.976Z,21.50
2018-05-27T13:39:31.058Z,21.50
2018-05-27T13:40:02.375Z,21.50
2018-05-27T13:40:34.411Z,21.60
2018-05-27T13:41:05.755Z,21.50
2018-05-27T13:41:37.114Z,21.50
2018-05-27T13:42:09.165Z,21.40
2018-05-27T13:42:41.203Z,21.40
2018-05-27T13:43:19.471Z,21.40
2018-05-27T13:43:50.806Z,21.40
2018-05-27T13:44:22.135Z,21.40
2018-05-27T13:44:53.508Z,21.40
2018-05-27T13:45:25.588Z,21.50
2018-05-27T13:45:57.675Z,21.40
2018-05-27T13:46:29.737Z,21.50
2018-05-27T13:47:01.775Z,21.50
2018-05-27T13:47:33.828Z,21.50
2018-05-27T13:48:05.123Z,21.50
2018-05-27T13:48:36.412Z,21.50
2018-05-27T13:49:07.759Z,21.60
2018-05-27T13:49:39.794Z,21.50
2018-05-27T13:50:11.160Z,21.50
2018-05-27T13:50:43.203Z,21.50
2018-05-27T13:51:14.540Z,21.40
2018-05-27T13:51:45.898Z,21.40
2018-05-27T13:52:17.976Z,21.40
2018-05-27T13:52:49.274Z,21.40
2018-05-27T13:53:20.568Z,21.40
2018-05-27T13:53:51.874Z,21.50
2018-05-27T13:54:23.910Z,21.50
2018-05-27T13:54:55.211Z,21.50
2018-05-27T13:55:26.587Z,21.60
2018-05-27T13:55:57.914Z,21.60
2018-05-27T13:56:29.219Z,21.60
2018-05-27T13:57:00.514Z,21.60
2018-05-27T13:57:32.555Z,21.60
2018-05-27T13:58:03.855Z,21.60
2018-05-27T13:58:35.156Z,21.70
2018-05-27T13:59:07.199Z,21.60
2018-05-27T13:59:38.531Z,21.60
2018-05-27T14:00:09.862Z,21.60
2018-05-27T14:00:41.951Z,21.60
2018-05-27T14:01:13.250Z,21.60
2018-05-27T14:01:44.615Z,21.60
2018-05-27T14:02:16.651Z,21.60
2018-05-27T14:02:48.871Z,21.60
2018-05-27T14:03:20.211Z,21.60
2018-05-27T14:03:51.524Z,21.60
2018-05-27T14:04:23.558Z,21.60
2018-05-27T14:04:54.914Z,21.60
2018-05-27T14:05:26.255Z,21.60
2018-05-27T14:05:57.619Z,21.60
2018-05-27T14:06:28.911Z,21.60
2018-05-27T14:07:01.704Z,21.60
2018-05-27T14:07:33.762Z,21.60
2018-05-27T14:08:05.798Z,21.70
2018-05-27T14:08:37.108Z,21.60
2018-05-27T14:09:08.419Z,21.70
2018-05-27T14:09:39.717Z,21.70
2018-05-27T14:10:11.041Z,21.70
2018-05-27T14:10:42.359Z,21.70
2018-05-27T14:11:13.687Z,21.70
2018-05-27T14:11:44.975Z,21.80
2018-05-27T14:12:16.272Z,21.90
2018-05-27T14:12:47.610Z,21.90
2018-05-27T14:13:18.955Z,22.00
2018-05-27T14:13:50.294Z,22.10
2018-05-27T14:14:21.600Z,22.10
2018-05-27T14:14:52.906Z,22.10
2018-05-27T14:15:24.207Z,22.10
2018-05-27T14:15:55.519Z,22.10
2018-05-27T14:16:27.571Z,22.20
2018-05-27T14:16:58.916Z,22.20
2018-05-27T14:17:30.251Z,22.20
2018-05-27T14:18:02.286Z,22.30
2018-05-27T14:18:33.577Z,22.30
2018-05-27T14:19:04.863Z,22.30
2018-05-27T14:19:36.156Z,22.30
2018-05-27T14:20:07.460Z,22.30
2018-05-27T14:20:38.786Z,22.30
2018-05-27T14:21:10.823Z,22.30
2018-05-27T14:21:42.140Z,22.30
2018-05-27T14:22:13.431Z,22.30
2018-05-27T14:22:45.458Z,22.30
2018-05-27T14:23:18.235Z,22.20
2018-05-27T14:23:49.582Z,22.20
2018-05-27T14:24:20.884Z,22.20
2018-05-27T14:24:52.225Z,22.20
2018-05-27T14:25:23.559Z,22.20
2018-05-27T14:25:54.854Z,22.20
2018-05-27T14:26:26.887Z,22.10
2018-05-27T14:26:58.255Z,22.20
2018-05-27T14:27:29.619Z,22.20
2018-05-27T14:28:00.907Z,22.10
2018-05-27T14:28:32.203Z,22.10
2018-05-27T14:29:03.543Z,22.10
2018-05-27T14:29:34.823Z,22.10
2018-05-27T14:30:06.135Z,22.10
2018-05-27T14:30:37.443Z,22.10
2018-05-27T14:31:08.734Z,22.10
2018-05-27T14:31:40.035Z,22.10
2018-05-27T14:32:11.359Z,22.20
2018-05-27T14:32:42.687Z,22.20
2018-05-27T14:33:14.070Z,22.20
2018-05-27T14:33:45.371Z,22.20
2018-05-27T14:34:16.706Z,22.30
2018-05-27T14:34:48.011Z,22.40
2018-05-27T14:35:19.310Z,22.40
2018-05-27T14:35:50.607Z,22.40
2018-05-27T14:36:21.891Z,22.40
2018-05-27T14:36:53.235Z,22.40
2018-05-27T14:37:24.574Z,22.40
2018-05-27T14:37:55.880Z,22.40
2018-05-27T14:38:27.191Z,22.40
2018-05-27T14:38:59.231Z,22.40
2018-05-27T14:39:30.543Z,22.40
2018-05-27T14:40:01.882Z,22.40
2018-05-27T14:40:33.163Z,22.40
2018-05-27T14:41:04.462Z,22.40
2018-05-27T14:41:35.758Z,22.40
2018-05-27T14:42:07.071Z,22.40
2018-05-27T14:42:38.406Z,22.40
2018-05-27T14:43:09.695Z,22.40
2018-05-27T14:43:40.991Z,22.40
2018-05-27T14:44:12.286Z,22.40
2018-05-27T14:44:43.593Z,22.40
2018-05-27T14:45:14.899Z,22.40
2018-05-27T14:45:46.197Z,22.40
2018-05-27T14:46:17.531Z,22.40
2018-05-27T14:46:48.870Z,22.40
2018-05-27T14:47:20.211Z,22.30
2018-05-27T14:47:51.610Z,22.40
2018-05-27T14:48:22.959Z,22.30
2018-05-27T14:48:54.251Z,22.30
2018-05-27T14:49:25.555Z,22.30
2018-05-27T14:49:56.907Z,22.30
2018-05-27T14:50:28.295Z,22.30
2018-05-27T14:50:59.602Z,22.30
2018-05-27T14:51:30.943Z,22.30
2018-05-27T14:52:02.290Z,22.30
2018-05-27T14:52:33.599Z,22.40
2018-05-27T14:53:04.927Z,22.40
2018-05-27T14:53:36.962Z,22.30
2018-05-27T14:54:08.303Z,22.30
2018-05-27T14:54:39.663Z,22.30
2018-05-27T14:55:11.014Z,22.30
2018-05-27T14:55:42.351Z,22.30
2018-05-27T14:56:14.383Z,22.40
2018-05-27T14:56:45.678Z,22.30
2018-05-27T14:57:16.999Z,22.40
2018-05-27T14:57:48.395Z,22.40
2018-05-27T14:58:19.767Z,22.40
2018-05-27T14:58:51.802Z,22.50
2018-05-27T14:59:23.123Z,22.50
2018-05-27T14:59:54.421Z,22.50
2018-05-27T15:00:25.763Z,22.40
2018-05-27T15:00:57.068Z,22.40
2018-05-27T15:01:29.132Z,22.40
2018-05-27T15:02:01.166Z,22.30
2018-05-27T15:02:32.523Z,22.30
2018-05-27T15:03:04.578Z,22.20
2018-05-27T15:03:36.651Z,22.20
2018-05-27T15:04:07.988Z,22.20
2018-05-27T15:04:40.011Z,22.10
2018-05-27T15:05:11.349Z,22.10
2018-05-27T15:05:42.692Z,22.10
2018-05-27T15:06:13.990Z,22.00
2018-05-27T15:06:45.299Z,22.00
2018-05-27T15:07:16.604Z,22.10
2018-05-27T15:07:47.940Z,22.10
2018-05-27T15:08:19.315Z,22.10
2018-05-27T15:08:51.379Z,22.00
2018-05-27T15:09:23.410Z,22.00
2018-05-27T15:09:54.769Z,22.00
2018-05-27T15:10:26.820Z,22.00
2018-05-27T15:10:58.855Z,22.00
2018-05-27T15:11:30.890Z,22.00
2018-05-27T15:12:02.992Z,22.00
2018-05-27T15:12:35.032Z,22.00
2018-05-27T15:13:06.363Z,21.90
2018-05-27T15:13:37.703Z,21.90
2018-05-27T15:14:09.084Z,21.90
2018-05-27T15:14:41.195Z,21.90
2018-05-27T15:15:12.575Z,21.80
2018-05-27T15:15:44.784Z,21.80
2018-05-27T15:16:16.867Z,21.70
2018-05-27T15:16:48.179Z,21.70
2018-05-27T15:17:19.787Z,21.80
2018-05-27T15:17:51.371Z,21.70
2018-05-27T15:18:22.685Z,21.70
2018-05-27T15:18:53.979Z,21.70
2018-05-27T15:19:25.542Z,21.70
2018-05-27T15:19:56.855Z,21.60
2018-05-27T15:20:28.571Z,21.60
2018-05-27T15:20:59.912Z,21.60
2018-05-27T15:21:31.332Z,21.60
2018-05-27T15:22:02.684Z,21.60
2018-05-27T15:22:35.071Z,21.50
2018-05-27T15:23:06.371Z,21.50
2018-05-27T15:23:37.957Z,21.50
2018-05-27T15:24:09.563Z,21.50
2018-05-27T15:24:41.075Z,21.60
2018-05-27T15:25:13.182Z,21.60
2018-05-27T15:25:44.452Z,21.60
2018-05-27T15:26:15.869Z,21.50
2018-05-27T15:26:47.295Z,21.50
2018-05-27T15:27:19.495Z,21.50
2018-05-27T15:27:51.606Z,21.50
2018-05-27T15:28:23.019Z,21.50
2018-05-27T15:28:54.423Z,21.50
2018-05-27T15:29:26.531Z,21.50
2018-05-27T15:29:57.906Z,21.50
2018-05-27T15:30:29.321Z,21.50
2018-05-27T15:31:00.829Z,21.50
2018-05-27T15:31:32.383Z,21.50
2018-05-27T15:32:03.935Z,21.50
2018-05-27T15:32:35.411Z,21.50
2018-05-27T15:33:06.699Z,21.50
2018-05-27T15:33:38.052Z,21.50
2018-05-27T15:34:09.399Z,21.50
2018-05-27T15:34:40.766Z,21.50
2018-05-27T15:35:12.435Z,21.50
2018-05-27T15:35:44.051Z,21.50
2018-05-27T15:36:15.410Z,21.50
2018-05-27T15:36:46.743Z,21.40
2018-05-27T15:37:18.053Z,21.50
2018-05-27T15:37:50.213Z,21.50
2018-05-27T15:38:22.252Z,21.50
2018-05-27T15:38:53.630Z,21.50
2018-05-27T15:39:24.985Z,21.50
2018-05-27T15:39:56.282Z,21.40
2018-05-27T15:40:28.461Z,21.40
2018-05-27T15:40:59.763Z,21.40
2018-05-27T15:41:31.046Z,21.40
2018-05-27T15:42:02.468Z,21.40
2018-05-27T15:42:33.806Z,21.40
2018-05-27T15:43:05.159Z,21.40
2018-05-27T15:43:36.499Z,21.40
2018-05-27T15:44:07.842Z,21.40
2018-05-27T15:44:39.190Z,21.40
2018-05-27T15:45:10.487Z,21.40
2018-05-27T15:45:41.807Z,21.40
2018-05-27T15:46:13.123Z,21.40
2018-05-27T15:47:25.073Z,21.40
2018-05-27T15:47:57.141Z,21.50
2018-05-27T15:48:28.505Z,21.50
2018-05-27T15:48:59.839Z,21.50
2018-05-27T15:49:31.225Z,21.50
2018-05-27T15:50:02.665Z,21.50
2018-05-27T15:50:34.013Z,21.50
2018-05-27T15:51:05.452Z,21.50
2018-05-27T15:51:38.261Z,21.50
2018-05-27T15:52:10.324Z,21.50
2018-05-27T15:52:41.656Z,21.50
2018-05-27T15:53:12.985Z,21.50
2018-05-27T15:53:45.082Z,21.50
2018-05-27T15:54:16.408Z,21.50
2018-05-27T15:54:48.094Z,21.50
2018-05-27T15:55:19.403Z,21.50
2018-05-27T15:55:50.706Z,21.50
2018-05-27T15:56:22.023Z,21.60
2018-05-27T15:56:53.363Z,21.60
2018-05-27T15:57:24.715Z,21.60
2018-05-27T15:57:56.011Z,21.60
2018-05-27T15:58:27.303Z,21.50
2018-05-27T15:58:59.343Z,21.60
2018-05-27T15:59:30.636Z,21.50
2018-05-27T16:00:01.987Z,21.50
2018-05-27T16:00:33.291Z,21.60
2018-05-27T16:01:05.329Z,21.50
2018-05-27T16:01:37.411Z,21.50
2018-05-27T16:02:08.712Z,21.50
2018-05-27T16:02:40.011Z,21.50
2018-05-27T16:03:11.316Z,21.50
2018-05-27T16:03:43.354Z,21.50
2018-05-27T16:04:14.655Z,21.40
2018-05-27T16:04:45.958Z,21.50
2018-05-27T16:05:17.295Z,21.50
2018-05-27T16:05:48.639Z,21.40
2018-05-27T16:06:19.983Z,21.30
2018-05-27T16:06:52.049Z,21.20
2018-05-27T16:07:23.348Z,21.20
2018-05-27T16:07:54.691Z,21.20
2018-05-27T16:08:26.024Z,21.20
2018-05-27T16:08:57.364Z,21.20
2018-05-27T16:09:28.658Z,21.30
2018-05-27T16:10:01.488Z,21.30
2018-05-27T16:10:32.855Z,21.30
2018-05-27T16:11:04.217Z,21.20
2018-05-27T16:11:35.512Z,21.20
2018-05-27T16:12:06.867Z,21.10
2018-05-27T16:12:38.239Z,21.10
2018-05-27T16:13:10.355Z,21.20
2018-05-27T16:13:42.399Z,21.10
2018-05-27T16:14:13.700Z,21.10
2018-05-27T16:14:44.978Z,21.10
2018-05-27T16:15:16.327Z,21.10
2018-05-27T16:15:47.663Z,21.10
2018-05-27T16:16:19.019Z,21.10
2018-05-27T16:16:51.047Z,21.10
2018-05-27T16:17:22.351Z,21.10
2018-05-27T16:17:53.643Z,21.10
2018-05-27T16:18:25.686Z,21.10
2018-05-27T16:18:57.195Z,21.10
2018-05-27T16:19:28.504Z,21.10
2018-05-27T16:19:59.806Z,21.10
2018-05-27T16:20:31.107Z,21.10
2018-05-27T16:21:02.408Z,21.20
2018-05-27T16:21:33.748Z,21.20
2018-05-27T16:22:05.089Z,21.20
2018-05-27T16:22:37.146Z,21.30
2018-05-27T16:23:09.178Z,21.30
2018-05-27T16:23:40.477Z,21.30
2018-05-27T16:24:11.780Z,21.30
2018-05-27T16:24:43.819Z,21.30
2018-05-27T16:25:15.107Z,21.30
2018-05-27T16:25:46.455Z,21.30
2018-05-27T16:26:17.786Z,21.30
2018-05-27T16:26:49.087Z,21.30
2018-05-27T16:27:20.447Z,21.30
2018-05-27T16:27:51.778Z,21.30
2018-05-27T16:28:23.831Z,21.30
2018-05-27T16:28:55.892Z,21.30
2018-05-27T16:29:27.960Z,21.30
2018-05-27T16:29:59.254Z,21.30
2018-05-27T16:30:30.559Z,21.40
2018-05-27T16:31:01.859Z,21.40
2018-05-27T16:31:33.887Z,21.50
2018-05-27T16:32:05.172Z,21.40
2018-05-27T16:32:36.463Z,21.50
2018-05-27T16:33:07.783Z,21.50
2018-05-27T16:33:39.083Z,21.50
2018-05-27T16:34:10.435Z,21.50
2018-05-27T16:34:41.770Z,21.50
2018-05-27T16:35:13.111Z,21.50
2018-05-27T16:35:44.450Z,21.50
2018-05-27T16:36:15.786Z,21.50
2018-05-27T16:36:47.079Z,21.50
2018-05-27T16:37:18.379Z,21.50
2018-05-27T16:37:49.675Z,21.50
2018-05-27T16:38:21.035Z,21.50
2018-05-27T16:38:53.066Z,21.50
2018-05-27T16:39:24.367Z,21.40
2018-05-27T16:39:55.726Z,21.40
2018-05-27T16:40:27.815Z,21.40
2018-05-27T16:40:59.850Z,21.30
2018-05-27T16:41:31.155Z,21.30
2018-05-27T16:42:02.479Z,21.30
2018-05-27T16:42:33.777Z,21.30
2018-05-27T16:43:05.074Z,21.30
2018-05-27T16:43:37.198Z,21.30
2018-05-27T16:44:08.532Z,21.30
2018-05-27T16:44:40.611Z,21.30
2018-05-27T16:45:11.903Z,21.30
2018-05-27T16:45:43.226Z,21.30
2018-05-27T16:46:14.543Z,21.30
2018-05-27T16:46:45.868Z,21.30
2018-05-27T16:47:17.167Z,21.30
2018-05-27T16:47:48.507Z,21.30
2018-05-27T16:48:19.803Z,21.20
2018-05-27T16:48:51.124Z,21.20
2018-05-27T16:49:22.434Z,21.20
2018-05-27T16:49:54.475Z,21.10
2018-05-27T16:50:25.770Z,21.10
2018-05-27T16:50:57.114Z,21.10
2018-05-27T16:51:28.423Z,21.10
2018-05-27T16:51:59.755Z,21.10
2018-05-27T16:52:31.083Z,21.00
2018-05-27T16:53:02.383Z,21.10
2018-05-27T16:53:33.676Z,21.10
2018-05-27T16:54:05.751Z,21.00
2018-05-27T16:54:37.039Z,21.00
2018-05-27T16:55:08.379Z,21.00
2018-05-27T16:55:41.151Z,20.90
2018-05-27T16:56:12.447Z,20.90
2018-05-27T16:56:43.742Z,21.00
2018-05-27T16:57:15.037Z,21.00
2018-05-27T16:57:46.339Z,21.00
2018-05-27T16:58:18.379Z,21.00
2018-05-27T16:58:50.454Z,21.00
2018-05-27T16:59:21.807Z,21.00
2018-05-27T16:59:53.163Z,21.00
2018-05-27T17:00:58.260Z,21.00
2018-05-27T17:01:30.300Z,21.10
2018-05-27T17:02:01.597Z,21.00
2018-05-27T17:02:32.882Z,21.10
2018-05-27T17:03:04.179Z,21.10
2018-05-27T17:03:35.471Z,21.10
2018-05-27T17:04:07.506Z,21.20
2018-05-27T17:04:38.823Z,21.10
2018-05-27T17:05:10.119Z,21.20
2018-05-27T17:05:42.152Z,21.20
2018-05-27T17:06:13.468Z,21.20
2018-05-27T17:06:44.767Z,21.20
2018-05-27T17:07:16.075Z,21.30
2018-05-27T17:07:47.374Z,21.30
2018-05-27T17:08:18.670Z,21.20
2018-05-27T17:08:50.740Z,21.30
2018-05-27T17:09:22.031Z,21.20
2018-05-27T17:09:53.395Z,21.20
2018-05-27T17:10:24.727Z,21.20
2018-05-27T17:10:56.070Z,21.20
2018-05-27T17:11:27.402Z,21.20
2018-05-27T17:11:58.699Z,21.10
2018-05-27T17:12:30.031Z,21.10
2018-05-27T17:13:01.364Z,21.10
2018-05-27T17:13:32.658Z,21.10
2018-05-27T17:14:04.003Z,21.10
2018-05-27T17:14:35.311Z,21.00
2018-05-27T17:15:06.652Z,21.00
2018-05-27T17:15:37.955Z,21.00
2018-05-27T17:16:09.254Z,21.00
2018-05-27T17:16:40.547Z,20.90
2018-05-27T17:17:11.835Z,20.90
2018-05-27T17:17:43.123Z,20.90
2018-05-27T17:18:14.419Z,20.90
2018-05-27T17:18:46.452Z,20.80
2018-05-27T17:19:17.742Z,20.80
2018-05-27T17:19:49.043Z,20.80
2018-05-27T17:20:20.370Z,20.80
2018-05-27T17:20:51.709Z,20.90
2018-05-27T17:21:23.113Z,20.90
2018-05-27T17:21:54.402Z,20.80
2018-05-27T17:22:25.699Z,20.80
2018-05-27T17:22:57.047Z,20.80
2018-05-27T17:23:28.375Z,20.80
2018-05-27T17:23:59.666Z,20.80
2018-05-27T17:24:31.706Z,20.80
2018-05-27T17:25:03.023Z,20.80
2018-05-27T17:25:34.360Z,20.80
2018-05-27T17:26:06.460Z,20.70
2018-05-27T17:26:37.767Z,20.70
2018-05-27T17:27:09.060Z,20.70
2018-05-27T17:27:40.367Z,20.80
2018-05-27T17:28:11.733Z,20.80
2018-05-27T17:28:43.011Z,20.80
2018-05-27T17:29:14.359Z,20.80
2018-05-27T17:29:46.475Z,20.80
2018-05-27T17:30:17.772Z,20.80
2018-05-27T17:30:49.099Z,20.80
2018-05-27T17:31:20.399Z,20.70
2018-05-27T17:31:51.743Z,20.70
2018-05-27T17:32:23.051Z,20.70
2018-05-27T17:32:54.387Z,20.60
2018-05-27T17:33:25.735Z,20.60
2018-05-27T17:33:57.086Z,20.60
2018-05-27T17:34:28.420Z,20.50
2018-05-27T17:35:00.455Z,20.50
2018-05-27T17:35:31.799Z,20.50
2018-05-27T17:36:03.279Z,20.50
2018-05-27T17:36:34.591Z,20.50
2018-05-27T17:37:06.619Z,20.50
2018-05-27T17:37:39.398Z,20.50
2018-05-27T17:38:10.763Z,20.50
2018-05-27T17:38:42.100Z,20.60
2018-05-27T17:39:13.469Z,20.50
2018-05-27T17:39:44.818Z,20.50
2018-05-27T17:40:16.927Z,20.50
2018-05-27T17:40:48.279Z,20.50
2018-05-27T17:41:19.651Z,20.50
2018-05-27T17:41:50.999Z,20.50
2018-05-27T17:42:22.347Z,20.50
2018-05-27T17:42:53.687Z,20.50
2018-05-27T17:43:24.979Z,20.40
2018-05-27T17:43:57.015Z,20.40
2018-05-27T17:44:28.315Z,20.40
2018-05-27T17:44:59.649Z,20.40
2018-05-27T17:45:31.015Z,20.40
2018-05-27T17:46:02.397Z,20.40
2018-05-27T17:46:33.787Z,20.40
2018-05-27T17:47:05.126Z,20.30
2018-05-27T17:47:36.419Z,20.40
2018-05-27T17:48:12.258Z,20.50
2018-05-27T17:48:43.634Z,20.40
2018-05-27T17:49:14.980Z,20.50
2018-05-27T17:49:46.288Z,20.50
2018-05-27T17:50:18.336Z,20.40
2018-05-27T17:50:50.376Z,20.40
2018-05-27T17:51:21.723Z,20.40
2018-05-27T17:51:53.047Z,20.40
2018-05-27T17:52:24.407Z,20.50
2018-05-27T17:52:55.703Z,20.50
2018-05-27T17:53:27.807Z,20.40
2018-05-27T17:53:59.099Z,20.40
2018-05-27T17:54:30.391Z,20.40
2018-05-27T17:55:09.444Z,20.40
2018-05-27T17:55:40.799Z,20.30
2018-05-27T17:56:12.091Z,20.30
2018-05-27T17:56:43.395Z,20.30
2018-05-27T17:57:14.715Z,20.30
2018-05-27T17:57:46.002Z,20.30
2018-05-27T17:58:17.307Z,20.30
2018-05-27T17:58:49.410Z,20.30
2018-05-27T17:59:21.451Z,20.30
2018-05-27T17:59:52.757Z,20.30
2018-05-27T18:00:24.055Z,20.20
2018-05-27T18:00:55.351Z,20.20
2018-05-27T18:01:26.646Z,20.20
2018-05-27T18:01:57.955Z,20.10
2018-05-27T18:02:30.019Z,20.10
2018-05-27T18:03:02.076Z,20.10
2018-05-27T18:03:33.399Z,20.10
2018-05-27T18:04:04.750Z,20.10
2018-05-27T18:04:36.035Z,20.10
2018-05-27T18:05:07.547Z,20.10
2018-05-27T18:05:39.019Z,20.20
2018-05-27T18:06:11.135Z,20.20
2018-05-27T18:06:43.179Z,20.10
2018-05-27T18:07:14.521Z,20.10
2018-05-27T18:07:45.861Z,20.10
2018-05-27T18:08:17.155Z,20.10
2018-05-27T18:08:48.467Z,20.10
2018-05-27T18:09:19.807Z,20.10
2018-05-27T18:09:51.114Z,20.10
2018-05-27T18:10:22.416Z,20.10
2018-05-27T18:10:54.511Z,20.00
2018-05-27T18:11:25.825Z,20.00
2018-05-27T18:11:57.904Z,20.00
2018-05-27T18:12:29.268Z,20.00
2018-05-27T18:13:00.624Z,19.90
2018-05-27T18:13:31.966Z,20.00
2018-05-27T18:14:04.107Z,20.00
2018-05-27T18:14:36.145Z,20.00
2018-05-27T18:15:07.448Z,20.00
2018-05-27T18:15:38.790Z,20.00
2018-05-27T18:16:10.080Z,20.00
2018-05-27T18:16:41.439Z,20.00
2018-05-27T18:17:12.754Z,20.00
2018-05-27T18:17:44.091Z,19.90
2018-05-27T18:18:15.454Z,19.90
2018-05-27T18:18:46.743Z,19.90
2018-05-27T18:19:18.042Z,20.00
2018-05-27T18:19:49.343Z,19.90
2018-05-27T18:20:20.683Z,19.90
2018-05-27T18:20:52.030Z,19.90
2018-05-27T18:21:23.382Z,19.90
2018-05-27T18:21:54.691Z,19.90
2018-05-27T18:22:25.983Z,19.90
2018-05-27T18:22:57.274Z,19.90
2018-05-27T18:23:29.358Z,19.90
2018-05-27T18:24:00.659Z,19.90
2018-05-27T18:24:32.012Z,19.80
2018-05-27T18:25:03.341Z,19.80
2018-05-27T18:25:34.674Z,19.80
2018-05-27T18:26:05.974Z,19.80
2018-05-27T18:26:37.263Z,19.80
2018-05-27T18:27:10.026Z,19.70
2018-05-27T18:27:41.322Z,19.80
2018-05-27T18:28:12.650Z,19.80
2018-05-27T18:28:44.053Z,19.70
2018-05-27T18:29:15.395Z,19.70
2018-05-27T18:29:46.727Z,19.70
2018-05-27T18:30:18.040Z,19.70
2018-05-27T18:30:49.335Z,19.70
2018-05-27T18:31:21.392Z,19.70
2018-05-27T18:31:53.447Z,19.70
2018-05-27T18:32:24.763Z,19.70
2018-05-27T18:32:56.063Z,19.70
2018-05-27T18:33:27.360Z,19.70
2018-05-27T18:33:59.422Z,19.60
2018-05-27T18:34:31.466Z,19.60
2018-05-27T18:35:03.518Z,19.60
2018-05-27T18:35:34.827Z,19.60
2018-05-27T18:36:06.143Z,19.60
2018-05-27T18:36:37.430Z,19.60
2018-05-27T18:37:08.723Z,19.60
2018-05-27T18:37:40.041Z,19.60
2018-05-27T18:38:11.375Z,19.50
2018-05-27T18:38:42.655Z,19.50
2018-05-27T18:39:13.991Z,19.50
2018-05-27T18:39:45.284Z,19.50
2018-05-27T18:40:17.319Z,19.40
2018-05-27T18:40:48.607Z,19.40
2018-05-27T18:41:19.912Z,19.40
2018-05-27T18:41:51.960Z,19.40
2018-05-27T18:42:23.266Z,19.40
2018-05-27T18:42:54.567Z,19.40
2018-05-27T18:43:25.859Z,19.40
2018-05-27T18:43:57.151Z,19.40
2018-05-27T18:44:28.483Z,19.40
2018-05-27T18:45:00.517Z,19.30
2018-05-27T18:45:32.562Z,19.30
2018-05-27T18:46:05.360Z,19.30
2018-05-27T18:46:37.443Z,19.40
2018-05-27T18:47:08.811Z,19.40
2018-05-27T18:47:40.124Z,19.30
2018-05-27T18:48:11.485Z,19.30
2018-05-27T18:48:42.784Z,19.30
2018-05-27T18:49:14.810Z,19.30
2018-05-27T18:49:46.131Z,19.30
2018-05-27T18:50:17.425Z,19.30
2018-05-27T18:50:48.715Z,19.40
2018-05-27T18:51:20.011Z,19.40
2018-05-27T18:51:51.328Z,19.30
2018-05-27T18:52:23.363Z,19.30
2018-05-27T18:52:54.659Z,19.30
2018-05-27T18:53:25.976Z,19.40
2018-05-27T18:54:04.234Z,19.40
2018-05-27T18:54:35.533Z,19.30
2018-05-27T18:55:06.855Z,19.40
2018-05-27T18:55:38.157Z,19.40
2018-05-27T18:56:09.475Z,19.40
2018-05-27T18:56:40.771Z,19.30
2018-05-27T18:57:12.114Z,19.30
2018-05-27T18:57:43.431Z,19.30
2018-05-27T18:58:15.491Z,19.30
2018-05-27T18:58:47.561Z,19.30
2018-05-27T18:59:18.855Z,19.20
2018-05-27T18:59:50.147Z,19.20
2018-05-27T19:00:21.467Z,19.20
2018-05-27T19:00:53.503Z,19.20
2018-05-27T19:01:24.811Z,19.20
2018-05-27T19:01:56.943Z,19.20
2018-05-27T19:02:28.243Z,19.20
2018-05-27T19:03:01.047Z,19.10
2018-05-27T19:03:33.078Z,19.10
2018-05-27T19:04:04.375Z,19.10
2018-05-27T19:04:35.675Z,19.10
2018-05-27T19:05:07.719Z,19.10
2018-05-27T19:05:39.809Z,19.10
2018-05-27T19:06:11.099Z,19.10
2018-05-27T19:06:42.395Z,19.10
2018-05-27T19:07:13.696Z,19.10
2018-05-27T19:07:45.727Z,19.10
2018-05-27T19:08:17.027Z,19.10
2018-05-27T19:08:48.323Z,19.00
2018-05-27T19:09:20.367Z,19.00
2018-05-27T19:09:51.722Z,19.00
2018-05-27T19:10:23.002Z,19.00
2018-05-27T19:10:54.327Z,19.00
2018-05-27T19:11:25.612Z,19.00
2018-05-27T19:11:56.919Z,19.00
2018-05-27T19:12:28.235Z,19.00
2018-05-27T19:13:00.274Z,18.90
2018-05-27T19:13:31.634Z,18.90
2018-05-27T19:14:02.995Z,19.00
2018-05-27T19:14:34.331Z,18.90
2018-05-27T19:15:05.679Z,19.00
2018-05-27T19:15:36.983Z,19.00
2018-05-27T19:16:09.063Z,19.00
2018-05-27T19:16:40.363Z,19.00
2018-05-27T19:17:11.666Z,19.00
2018-05-27T19:17:42.964Z,19.10
2018-05-27T19:18:14.994Z,19.00
2018-05-27T19:18:46.297Z,19.00
2018-05-27T19:19:17.592Z,19.00
2018-05-27T19:19:49.687Z,19.00
2018-05-27T19:20:20.967Z,19.00
2018-05-27T19:20:52.263Z,19.00
2018-05-27T19:21:23.599Z,19.00
2018-05-27T19:21:54.918Z,19.00
2018-05-27T19:22:26.210Z,19.00
2018-05-27T19:22:57.511Z,19.00
2018-05-27T19:23:28.798Z,19.00
2018-05-27T19:24:00.082Z,18.90
2018-05-27T19:24:31.383Z,18.90
2018-05-27T19:25:02.731Z,18.90
2018-05-27T19:25:34.775Z,18.90
2018-05-27T19:26:06.079Z,18.90
2018-05-27T19:26:37.410Z,18.90
2018-05-27T19:27:08.706Z,18.90
2018-05-27T19:27:40.758Z,19.00
2018-05-27T19:28:12.071Z,18.90
2018-05-27T19:28:43.354Z,18.90
2018-05-27T19:29:15.388Z,19.00
2018-05-27T19:29:46.718Z,18.90
2018-05-27T19:30:18.019Z,19.00
2018-05-27T19:30:49.303Z,19.00
2018-05-27T19:31:20.768Z,19.00
2018-05-27T19:31:52.371Z,19.00
2018-05-27T19:32:24.451Z,19.00
2018-05-27T19:32:55.795Z,18.90
2018-05-27T19:33:27.087Z,18.90
2018-05-27T19:33:58.383Z,18.90
2018-05-27T19:34:30.429Z,18.90
2018-05-27T19:35:01.723Z,18.90
2018-05-27T19:35:33.011Z,18.90
2018-05-27T19:36:04.331Z,18.90
2018-05-27T19:36:35.623Z,19.00
2018-05-27T19:37:06.966Z,19.00
2018-05-27T19:37:38.267Z,19.00
2018-05-27T19:38:09.566Z,19.10
2018-05-27T19:38:40.887Z,19.10
2018-05-27T19:39:12.195Z,19.10
2018-05-27T19:39:44.227Z,19.00
2018-05-27T19:40:15.523Z,19.00
2018-05-27T19:40:46.823Z,19.10
2018-05-27T19:41:18.867Z,19.10
2018-05-27T19:41:50.903Z,19.00
2018-05-27T19:42:29.102Z,19.00
2018-05-27T19:43:00.409Z,19.00
2018-05-27T19:43:31.723Z,19.00
2018-05-27T19:44:03.775Z,19.00
2018-05-27T19:44:35.815Z,18.90
2018-05-27T19:45:07.118Z,19.00
2018-05-27T19:45:38.403Z,19.00
2018-05-27T19:46:10.442Z,18.90
2018-05-27T19:46:41.779Z,18.90
2018-05-27T19:47:13.067Z,18.90
2018-05-27T19:47:44.383Z,18.90
2018-05-27T19:48:16.431Z,18.90
2018-05-27T19:48:47.726Z,18.90
2018-05-27T19:49:19.817Z,18.90
2018-05-27T19:49:51.146Z,18.90
2018-05-27T19:50:22.439Z,18.90
2018-05-27T19:50:53.730Z,18.90
2018-05-27T19:51:25.027Z,18.90
2018-05-27T19:51:56.331Z,18.90
2018-05-27T19:52:27.655Z,18.90
2018-05-27T19:52:59.016Z,18.90
2018-05-27T19:53:30.355Z,18.90
2018-05-27T19:54:02.415Z,18.90
2018-05-27T19:54:34.451Z,18.90
2018-05-27T19:55:05.743Z,18.90
2018-05-27T19:55:37.063Z,18.90
2018-05-27T19:56:08.381Z,18.90
2018-05-27T19:56:40.450Z,19.00
2018-05-27T19:57:11.755Z,19.00
2018-05-27T19:57:43.064Z,19.00
2018-05-27T19:58:14.398Z,19.00
2018-05-27T19:58:45.752Z,18.90
2018-05-27T19:59:17.046Z,19.00
2018-05-27T19:59:48.350Z,18.90
2018-05-27T20:00:21.122Z,18.90
2018-05-27T20:00:52.435Z,18.90
2018-05-27T20:01:23.767Z,18.90
2018-05-27T20:01:55.083Z,18.90
2018-05-27T20:02:26.399Z,18.90
2018-05-27T20:02:58.431Z,18.90
2018-05-27T20:03:29.759Z,18.80
2018-05-27T20:04:01.059Z,18.90
2018-05-27T20:04:32.358Z,18.90
2018-05-27T20:05:03.663Z,18.90
2018-05-27T20:05:34.961Z,18.80
2018-05-27T20:06:07.017Z,18.80
2018-05-27T20:06:39.058Z,18.80
2018-05-27T20:07:10.372Z,18.80
2018-05-27T20:07:41.695Z,18.80
2018-05-27T20:08:12.995Z,18.80
2018-05-27T20:08:45.076Z,18.70
2018-05-27T20:09:16.383Z,18.70
2018-05-27T20:09:48.447Z,18.70
2018-05-27T20:10:19.763Z,18.70